Terminal Aerodrome Forecast
Issued by NWS

Home | Current Version | Previous Version | Text Only | Print | Product List | Glossary On
Versions: 1 2 3 4 5 6 7 8 9 10 11 12
504
FTUS44 KJAN 250534
TAFGTR
TAF
KGTR 250534Z 2506/2606 16013G21KT P6SM SCT130 BKN250
     FM250900 16012G23KT P6SM BKN015 BKN250
     FM251200 15014G26KT 5SM SHRA VCTS BKN015CB OVC025
     FM251800 17014G25KT 5SM -TSRA BKN025CB OVC250
     FM252000 17014G25KT P6SM TSRA SCT025 BKN050CB OVC130
     FM260100 18009KT P6SM VCTS BKN050CB BKN130=

USA.gov is the U.S. government's official web portal to all federal, state and local government web resources and services.